sensor_id;sensor_type;location;lat;lon;timestamp;P1;durP1;ratioP1;P2;durP2;ratioP2
64667;SDS011;51077;42.716;23.344;2022-07-11T00:01:50;2.53;;;1.33;;
64667;SDS011;51077;42.716;23.344;2022-07-11T00:04:16;2.88;;;1.40;;
64667;SDS011;51077;42.716;23.344;2022-07-11T00:06:41;2.67;;;1.30;;
64667;SDS011;51077;42.716;23.344;2022-07-11T00:09:07;2.90;;;1.57;;
64667;SDS011;51077;42.716;23.344;2022-07-11T00:11:32;2.03;;;1.27;;
64667;SDS011;51077;42.716;23.344;2022-07-11T00:13:58;2.40;;;1.30;;
64667;SDS011;51077;42.716;23.344;2022-07-11T00:16:23;2.40;;;1.30;;
64667;SDS011;51077;42.716;23.344;2022-07-11T00:18:49;4.67;;;1.60;;
64667;SDS011;51077;42.716;23.344;2022-07-11T00:21:14;3.03;;;1.50;;
64667;SDS011;51077;42.716;23.344;2022-07-11T00:23:40;2.40;;;1.33;;
64667;SDS011;51077;42.716;23.344;2022-07-11T00:26:05;2.77;;;1.33;;
64667;SDS011;51077;42.716;23.344;2022-07-11T00:28:31;3.07;;;1.40;;
64667;SDS011;51077;42.716;23.344;2022-07-11T00:30:56;3.43;;;1.30;;
64667;SDS011;51077;42.716;23.344;2022-07-11T00:33:22;2.93;;;1.40;;
64667;SDS011;51077;42.716;23.344;2022-07-11T00:35:47;2.83;;;1.20;;
64667;SDS011;51077;42.716;23.344;2022-07-11T00:38:12;3.73;;;1.83;;
64667;SDS011;51077;42.716;23.344;2022-07-11T00:40:38;2.22;;;1.20;;
64667;SDS011;51077;42.716;23.344;2022-07-11T00:43:04;1.87;;;1.10;;
64667;SDS011;51077;42.716;23.344;2022-07-11T00:45:30;3.33;;;1.40;;
64667;SDS011;51077;42.716;23.344;2022-07-11T00:47:55;2.10;;;1.20;;
64667;SDS011;51077;42.716;23.344;2022-07-11T00:50:22;3.65;;;1.30;;
64667;SDS011;51077;42.716;23.344;2022-07-11T00:52:48;3.33;;;1.38;;
64667;SDS011;51077;42.716;23.344;2022-07-11T00:55:15;2.38;;;1.13;;
64667;SDS011;51077;42.716;23.344;2022-07-11T00:57:41;2.67;;;1.20;;
64667;SDS011;51077;42.716;23.344;2022-07-11T01:00:07;2.65;;;1.50;;
64667;SDS011;51077;42.716;23.344;2022-07-11T01:02:34;4.05;;;1.73;;
64667;SDS011;51077;42.716;23.344;2022-07-11T01:04:59;2.87;;;1.30;;
64667;SDS011;51077;42.716;23.344;2022-07-11T01:07:25;4.57;;;1.27;;
64667;SDS011;51077;42.716;23.344;2022-07-11T01:09:50;2.50;;;1.40;;
64667;SDS011;51077;42.716;23.344;2022-07-11T01:12:16;3.03;;;1.30;;
64667;SDS011;51077;42.716;23.344;2022-07-11T01:14:54;2.55;;;1.35;;
64667;SDS011;51077;42.716;23.344;2022-07-11T01:17:21;4.20;;;1.25;;
64667;SDS011;51077;42.716;23.344;2022-07-11T01:19:47;3.80;;;1.43;;
64667;SDS011;51077;42.716;23.344;2022-07-11T01:22:15;3.00;;;1.63;;
64667;SDS011;51077;42.716;23.344;2022-07-11T01:24:45;2.55;;;1.30;;
64667;SDS011;51077;42.716;23.344;2022-07-11T01:27:11;4.07;;;1.30;;
64667;SDS011;51077;42.716;23.344;2022-07-11T01:29:37;2.50;;;1.42;;
64667;SDS011;51077;42.716;23.344;2022-07-11T01:32:04;4.75;;;1.88;;
64667;SDS011;51077;42.716;23.344;2022-07-11T01:34:30;2.75;;;1.50;;
64667;SDS011;51077;42.716;23.344;2022-07-11T01:36:55;2.60;;;1.43;;
64667;SDS011;51077;42.716;23.344;2022-07-11T01:39:21;2.90;;;1.17;;
64667;SDS011;51077;42.716;23.344;2022-07-11T01:41:46;5.53;;;1.93;;
64667;SDS011;51077;42.716;23.344;2022-07-11T01:44:12;2.30;;;1.20;;
64667;SDS011;51077;42.716;23.344;2022-07-11T01:46:37;3.47;;;1.30;;
64667;SDS011;51077;42.716;23.344;2022-07-11T01:49:02;2.53;;;1.30;;
64667;SDS011;51077;42.716;23.344;2022-07-11T01:51:28;2.80;;;1.33;;
64667;SDS011;51077;42.716;23.344;2022-07-11T01:53:54;2.50;;;1.25;;
64667;SDS011;51077;42.716;23.344;2022-07-11T01:56:21;5.47;;;1.25;;
64667;SDS011;51077;42.716;23.344;2022-07-11T01:58:47;2.55;;;1.10;;
64667;SDS011;51077;42.716;23.344;2022-07-11T02:01:12;3.23;;;1.20;;
64667;SDS011;51077;42.716;23.344;2022-07-11T02:03:37;2.37;;;1.10;;
64667;SDS011;51077;42.716;23.344;2022-07-11T02:06:04;2.67;;;1.30;;
64667;SDS011;51077;42.716;23.344;2022-07-11T02:08:29;2.95;;;1.30;;
64667;SDS011;51077;42.716;23.344;2022-07-11T02:10:55;2.50;;;1.20;;
64667;SDS011;51077;42.716;23.344;2022-07-11T02:13:21;3.40;;;1.30;;
64667;SDS011;51077;42.716;23.344;2022-07-11T02:15:48;3.05;;;1.15;;
64667;SDS011;51077;42.716;23.344;2022-07-11T02:18:15;2.63;;;1.30;;
64667;SDS011;51077;42.716;23.344;2022-07-11T02:20:42;2.03;;;1.20;;
64667;SDS011;51077;42.716;23.344;2022-07-11T02:23:08;4.13;;;1.40;;
64667;SDS011;51077;42.716;23.344;2022-07-11T02:25:33;2.10;;;1.00;;
64667;SDS011;51077;42.716;23.344;2022-07-11T02:28:06;2.50;;;1.20;;
64667;SDS011;51077;42.716;23.344;2022-07-11T02:30:39;3.20;;;1.42;;
64667;SDS011;51077;42.716;23.344;2022-07-11T02:33:06;2.50;;;1.48;;
64667;SDS011;51077;42.716;23.344;2022-07-11T02:35:33;4.38;;;1.30;;
64667;SDS011;51077;42.716;23.344;2022-07-11T02:38:00;2.88;;;1.30;;
64667;SDS011;51077;42.716;23.344;2022-07-11T02:40:25;2.63;;;1.50;;
64667;SDS011;51077;42.716;23.344;2022-07-11T02:42:54;1.95;;;1.02;;
64667;SDS011;51077;42.716;23.344;2022-07-11T02:45:20;2.67;;;1.40;;
64667;SDS011;51077;42.716;23.344;2022-07-11T02:47:46;3.63;;;1.20;;
64667;SDS011;51077;42.716;23.344;2022-07-11T02:50:12;2.73;;;1.43;;
64667;SDS011;51077;42.716;23.344;2022-07-11T02:52:38;2.45;;;1.40;;
64667;SDS011;51077;42.716;23.344;2022-07-11T02:55:05;2.95;;;1.33;;
64667;SDS011;51077;42.716;23.344;2022-07-11T02:57:32;3.25;;;1.20;;
64667;SDS011;51077;42.716;23.344;2022-07-11T02:59:58;3.57;;;1.30;;
64667;SDS011;51077;42.716;23.344;2022-07-11T03:02:23;3.50;;;1.37;;
64667;SDS011;51077;42.716;23.344;2022-07-11T03:04:49;2.33;;;1.20;;
64667;SDS011;51077;42.716;23.344;2022-07-11T03:07:14;3.27;;;1.30;;
64667;SDS011;51077;42.716;23.344;2022-07-11T03:09:41;2.70;;;1.60;;
64667;SDS011;51077;42.716;23.344;2022-07-11T03:12:07;3.90;;;1.37;;
64667;SDS011;51077;42.716;23.344;2022-07-11T03:14:32;2.80;;;1.63;;
64667;SDS011;51077;42.716;23.344;2022-07-11T03:16:58;5.17;;;1.30;;
64667;SDS011;51077;42.716;23.344;2022-07-11T03:19:23;3.20;;;1.40;;
64667;SDS011;51077;42.716;23.344;2022-07-11T03:21:48;2.43;;;1.50;;
64667;SDS011;51077;42.716;23.344;2022-07-11T03:24:14;3.03;;;1.50;;
64667;SDS011;51077;42.716;23.344;2022-07-11T03:26:39;3.63;;;1.37;;
64667;SDS011;51077;42.716;23.344;2022-07-11T03:29:05;3.03;;;1.20;;
64667;SDS011;51077;42.716;23.344;2022-07-11T03:31:33;2.85;;;1.27;;
64667;SDS011;51077;42.716;23.344;2022-07-11T03:33:58;3.40;;;1.33;;
64667;SDS011;51077;42.716;23.344;2022-07-11T03:36:24;3.83;;;1.57;;
64667;SDS011;51077;42.716;23.344;2022-07-11T03:38:49;4.50;;;1.50;;
64667;SDS011;51077;42.716;23.344;2022-07-11T03:41:15;4.97;;;1.50;;
64667;SDS011;51077;42.716;23.344;2022-07-11T03:43:40;6.03;;;1.87;;
64667;SDS011;51077;42.716;23.344;2022-07-11T03:46:06;4.80;;;1.60;;
64667;SDS011;51077;42.716;23.344;2022-07-11T03:48:31;3.33;;;1.60;;
64667;SDS011;51077;42.716;23.344;2022-07-11T03:50:57;2.93;;;1.10;;
64667;SDS011;51077;42.716;23.344;2022-07-11T03:53:22;6.43;;;1.40;;
64667;SDS011;51077;42.716;23.344;2022-07-11T03:55:48;2.63;;;1.37;;
64667;SDS011;51077;42.716;23.344;2022-07-11T03:58:13;3.40;;;1.30;;
64667;SDS011;51077;42.716;23.344;2022-07-11T04:00:39;3.13;;;1.40;;
64667;SDS011;51077;42.716;23.344;2022-07-11T04:03:04;4.07;;;1.27;;
64667;SDS011;51077;42.716;23.344;2022-07-11T04:05:30;2.27;;;1.30;;
64667;SDS011;51077;42.716;23.344;2022-07-11T04:07:55;3.20;;;1.23;;
64667;SDS011;51077;42.716;23.344;2022-07-11T04:10:22;4.53;;;1.25;;
64667;SDS011;51077;42.716;23.344;2022-07-11T04:12:47;2.37;;;1.17;;
64667;SDS011;51077;42.716;23.344;2022-07-11T04:15:12;3.30;;;1.30;;
64667;SDS011;51077;42.716;23.344;2022-07-11T04:17:38;2.37;;;1.30;;
64667;SDS011;51077;42.716;23.344;2022-07-11T04:20:03;3.00;;;1.00;;
64667;SDS011;51077;42.716;23.344;2022-07-11T04:22:29;4.38;;;1.20;;
64667;SDS011;51077;42.716;23.344;2022-07-11T04:24:55;3.87;;;1.20;;
64667;SDS011;51077;42.716;23.344;2022-07-11T04:27:20;6.00;;;1.50;;
64667;SDS011;51077;42.716;23.344;2022-07-11T04:29:46;4.93;;;1.53;;
64667;SDS011;51077;42.716;23.344;2022-07-11T04:32:11;5.43;;;1.60;;
64667;SDS011;51077;42.716;23.344;2022-07-11T04:34:37;3.40;;;1.27;;
64667;SDS011;51077;42.716;23.344;2022-07-11T04:37:02;4.23;;;0.97;;
64667;SDS011;51077;42.716;23.344;2022-07-11T04:39:28;5.67;;;1.90;;
64667;SDS011;51077;42.716;23.344;2022-07-11T04:41:53;3.83;;;1.67;;
64667;SDS011;51077;42.716;23.344;2022-07-11T04:44:19;2.70;;;1.40;;
64667;SDS011;51077;42.716;23.344;2022-07-11T04:46:45;2.37;;;1.30;;
64667;SDS011;51077;42.716;23.344;2022-07-11T04:49:10;3.40;;;1.30;;
64667;SDS011;51077;42.716;23.344;2022-07-11T04:51:36;2.30;;;1.37;;
64667;SDS011;51077;42.716;23.344;2022-07-11T04:54:01;6.43;;;1.40;;
64667;SDS011;51077;42.716;23.344;2022-07-11T04:56:27;2.10;;;1.08;;
64667;SDS011;51077;42.716;23.344;2022-07-11T04:58:53;6.03;;;1.60;;
64667;SDS011;51077;42.716;23.344;2022-07-11T05:01:18;3.93;;;1.30;;
64667;SDS011;51077;42.716;23.344;2022-07-11T05:03:43;3.73;;;1.40;;
64667;SDS011;51077;42.716;23.344;2022-07-11T05:06:10;6.15;;;1.90;;
64667;SDS011;51077;42.716;23.344;2022-07-11T05:08:35;2.73;;;1.23;;
64667;SDS011;51077;42.716;23.344;2022-07-11T05:11:02;3.07;;;1.50;;
64667;SDS011;51077;42.716;23.344;2022-07-11T05:13:28;3.58;;;1.58;;
64667;SDS011;51077;42.716;23.344;2022-07-11T05:15:54;3.43;;;1.23;;
64667;SDS011;51077;42.716;23.344;2022-07-11T05:18:19;2.80;;;1.30;;
64667;SDS011;51077;42.716;23.344;2022-07-11T05:20:45;3.70;;;1.27;;
64667;SDS011;51077;42.716;23.344;2022-07-11T05:23:10;4.37;;;1.40;;
64667;SDS011;51077;42.716;23.344;2022-07-11T05:25:36;3.37;;;1.53;;
64667;SDS011;51077;42.716;23.344;2022-07-11T05:28:01;2.27;;;1.37;;
64667;SDS011;51077;42.716;23.344;2022-07-11T05:30:26;3.73;;;1.77;;
64667;SDS011;51077;42.716;23.344;2022-07-11T05:32:52;2.90;;;1.43;;
64667;SDS011;51077;42.716;23.344;2022-07-11T05:35:17;3.90;;;1.30;;
64667;SDS011;51077;42.716;23.344;2022-07-11T05:37:43;3.80;;;1.57;;
64667;SDS011;51077;42.716;23.344;2022-07-11T05:40:08;4.00;;;1.60;;
64667;SDS011;51077;42.716;23.344;2022-07-11T05:42:34;4.10;;;1.38;;
64667;SDS011;51077;42.716;23.344;2022-07-11T05:45:00;4.37;;;1.50;;
64667;SDS011;51077;42.716;23.344;2022-07-11T05:47:25;3.30;;;1.60;;
64667;SDS011;51077;42.716;23.344;2022-07-11T05:49:51;2.70;;;1.40;;
64667;SDS011;51077;42.716;23.344;2022-07-11T05:52:16;4.10;;;1.47;;
64667;SDS011;51077;42.716;23.344;2022-07-11T05:54:42;2.83;;;1.40;;
64667;SDS011;51077;42.716;23.344;2022-07-11T05:57:07;3.03;;;1.23;;
64667;SDS011;51077;42.716;23.344;2022-07-11T05:59:33;5.00;;;2.03;;
64667;SDS011;51077;42.716;23.344;2022-07-11T06:02:01;3.83;;;1.10;;
64667;SDS011;51077;42.716;23.344;2022-07-11T06:04:27;7.05;;;1.48;;
64667;SDS011;51077;42.716;23.344;2022-07-11T06:06:52;2.43;;;1.10;;
64667;SDS011;51077;42.716;23.344;2022-07-11T06:09:18;5.07;;;0.90;;
64667;SDS011;51077;42.716;23.344;2022-07-11T06:11:43;4.87;;;0.90;;
64667;SDS011;51077;42.716;23.344;2022-07-11T06:14:09;3.33;;;1.00;;
64667;SDS011;51077;42.716;23.344;2022-07-11T06:16:34;3.50;;;0.90;;
64667;SDS011;51077;42.716;23.344;2022-07-11T06:19:00;3.93;;;1.00;;
64667;SDS011;51077;42.716;23.344;2022-07-11T06:21:25;3.43;;;0.93;;
64667;SDS011;51077;42.716;23.344;2022-07-11T06:23:52;2.83;;;1.25;;
64667;SDS011;51077;42.716;23.344;2022-07-11T06:26:17;1.43;;;0.73;;
64667;SDS011;51077;42.716;23.344;2022-07-11T06:28:43;4.40;;;1.00;;
64667;SDS011;51077;42.716;23.344;2022-07-11T06:31:08;3.23;;;1.17;;
64667;SDS011;51077;42.716;23.344;2022-07-11T06:33:34;1.90;;;1.00;;
64667;SDS011;51077;42.716;23.344;2022-07-11T06:36:00;3.17;;;0.98;;
64667;SDS011;51077;42.716;23.344;2022-07-11T06:38:27;1.83;;;0.82;;
64667;SDS011;51077;42.716;23.344;2022-07-11T06:40:53;4.38;;;0.98;;
64667;SDS011;51077;42.716;23.344;2022-07-11T06:43:19;3.60;;;1.13;;
64667;SDS011;51077;42.716;23.344;2022-07-11T06:45:45;3.70;;;0.87;;
64667;SDS011;51077;42.716;23.344;2022-07-11T06:48:11;3.22;;;0.90;;
64667;SDS011;51077;42.716;23.344;2022-07-11T06:50:37;2.03;;;0.80;;
64667;SDS011;51077;42.716;23.344;2022-07-11T06:53:02;4.20;;;0.97;;
64667;SDS011;51077;42.716;23.344;2022-07-11T06:55:28;1.48;;;0.73;;
64667;SDS011;51077;42.716;23.344;2022-07-11T06:57:53;2.53;;;0.60;;
64667;SDS011;51077;42.716;23.344;2022-07-11T07:00:19;3.97;;;0.80;;
64667;SDS011;51077;42.716;23.344;2022-07-11T07:02:44;4.20;;;0.80;;
64667;SDS011;51077;42.716;23.344;2022-07-11T07:05:10;1.80;;;0.87;;
64667;SDS011;51077;42.716;23.344;2022-07-11T07:07:36;2.87;;;0.80;;
64667;SDS011;51077;42.716;23.344;2022-07-11T07:10:01;3.90;;;1.00;;
64667;SDS011;51077;42.716;23.344;2022-07-11T07:12:27;2.43;;;0.70;;
64667;SDS011;51077;42.716;23.344;2022-07-11T07:14:52;3.47;;;0.97;;
64667;SDS011;51077;42.716;23.344;2022-07-11T07:17:18;8.13;;;1.10;;
64667;SDS011;51077;42.716;23.344;2022-07-11T07:19:44;2.57;;;0.87;;
64667;SDS011;51077;42.716;23.344;2022-07-11T07:22:09;4.63;;;0.60;;
64667;SDS011;51077;42.716;23.344;2022-07-11T07:24:35;2.80;;;0.90;;
64667;SDS011;51077;42.716;23.344;2022-07-11T07:27:03;6.88;;;0.88;;
64667;SDS011;51077;42.716;23.344;2022-07-11T07:29:29;5.03;;;0.83;;
64667;SDS011;51077;42.716;23.344;2022-07-11T07:31:54;3.23;;;1.00;;
64667;SDS011;51077;42.716;23.344;2022-07-11T07:34:20;4.83;;;0.83;;
64667;SDS011;51077;42.716;23.344;2022-07-11T07:36:46;4.80;;;1.00;;
64667;SDS011;51077;42.716;23.344;2022-07-11T07:39:11;3.57;;;0.80;;
64667;SDS011;51077;42.716;23.344;2022-07-11T07:41:37;4.23;;;0.90;;
64667;SDS011;51077;42.716;23.344;2022-07-11T07:44:02;4.60;;;1.30;;
64667;SDS011;51077;42.716;23.344;2022-07-11T07:46:28;3.63;;;1.03;;
64667;SDS011;51077;42.716;23.344;2022-07-11T07:48:53;4.20;;;0.80;;
64667;SDS011;51077;42.716;23.344;2022-07-11T07:51:19;3.90;;;0.87;;
64667;SDS011;51077;42.716;23.344;2022-07-11T07:53:46;3.38;;;0.88;;
64667;SDS011;51077;42.716;23.344;2022-07-11T07:56:11;3.07;;;1.20;;
64667;SDS011;51077;42.716;23.344;2022-07-11T07:58:36;4.27;;;0.70;;
64667;SDS011;51077;42.716;23.344;2022-07-11T08:01:03;9.43;;;0.98;;
64667;SDS011;51077;42.716;23.344;2022-07-11T08:03:47;1.98;;;0.73;;
64667;SDS011;51077;42.716;23.344;2022-07-11T08:06:12;3.03;;;0.60;;
64667;SDS011;51077;42.716;23.344;2022-07-11T08:08:37;3.13;;;0.70;;
64667;SDS011;51077;42.716;23.344;2022-07-11T08:11:03;1.90;;;0.70;;
64667;SDS011;51077;42.716;23.344;2022-07-11T08:13:29;3.03;;;0.70;;
64667;SDS011;51077;42.716;23.344;2022-07-11T08:15:54;1.57;;;0.50;;
64667;SDS011;51077;42.716;23.344;2022-07-11T08:18:20;2.37;;;0.80;;
64667;SDS011;51077;42.716;23.344;2022-07-11T08:20:45;3.07;;;0.70;;
64667;SDS011;51077;42.716;23.344;2022-07-11T08:23:11;4.23;;;0.87;;
64667;SDS011;51077;42.716;23.344;2022-07-11T08:25:37;3.55;;;0.80;;
64667;SDS011;51077;42.716;23.344;2022-07-11T08:28:03;2.33;;;0.93;;
64667;SDS011;51077;42.716;23.344;2022-07-11T08:30:28;1.70;;;0.50;;
64667;SDS011;51077;42.716;23.344;2022-07-11T08:32:54;3.83;;;1.13;;
64667;SDS011;51077;42.716;23.344;2022-07-11T08:35:19;2.03;;;0.70;;
64667;SDS011;51077;42.716;23.344;2022-07-11T08:37:45;6.43;;;0.80;;
64667;SDS011;51077;42.716;23.344;2022-07-11T08:40:10;2.87;;;0.63;;
64667;SDS011;51077;42.716;23.344;2022-07-11T08:42:38;8.30;;;0.80;;
64667;SDS011;51077;42.716;23.344;2022-07-11T08:45:05;3.25;;;0.90;;
64667;SDS011;51077;42.716;23.344;2022-07-11T08:47:31;2.33;;;0.50;;
64667;SDS011;51077;42.716;23.344;2022-07-11T08:49:58;2.67;;;0.80;;
64667;SDS011;51077;42.716;23.344;2022-07-11T08:52:25;4.72;;;1.10;;
64667;SDS011;51077;42.716;23.344;2022-07-11T08:54:52;2.38;;;0.60;;
64667;SDS011;51077;42.716;23.344;2022-07-11T08:57:18;5.87;;;1.00;;
64667;SDS011;51077;42.716;23.344;2022-07-11T08:59:43;3.40;;;1.00;;
64667;SDS011;51077;42.716;23.344;2022-07-11T09:02:12;4.38;;;0.80;;
64667;SDS011;51077;42.716;23.344;2022-07-11T09:04:37;1.67;;;0.70;;
64667;SDS011;51077;42.716;23.344;2022-07-11T09:07:03;3.53;;;0.77;;
64667;SDS011;51077;42.716;23.344;2022-07-11T09:09:29;5.27;;;0.83;;
64667;SDS011;51077;42.716;23.344;2022-07-11T09:11:55;3.40;;;0.60;;
64667;SDS011;51077;42.716;23.344;2022-07-11T09:16:59;2.85;;;0.80;;
64667;SDS011;51077;42.716;23.344;2022-07-11T09:19:29;4.32;;;0.70;;
64667;SDS011;51077;42.716;23.344;2022-07-11T09:22:01;5.78;;;0.73;;
64667;SDS011;51077;42.716;23.344;2022-07-11T09:24:55;3.33;;;0.60;;
64667;SDS011;51077;42.716;23.344;2022-07-11T09:27:51;2.83;;;0.57;;
64667;SDS011;51077;42.716;23.344;2022-07-11T09:35:31;2.17;;;0.55;;
64667;SDS011;51077;42.716;23.344;2022-07-11T09:37:56;3.03;;;0.65;;
64667;SDS011;51077;42.716;23.344;2022-07-11T09:40:22;3.57;;;0.53;;
64667;SDS011;51077;42.716;23.344;2022-07-11T09:42:49;1.77;;;0.60;;
64667;SDS011;51077;42.716;23.344;2022-07-11T09:45:18;4.63;;;0.73;;
64667;SDS011;51077;42.716;23.344;2022-07-11T09:47:44;4.05;;;0.70;;
64667;SDS011;51077;42.716;23.344;2022-07-11T09:50:11;4.15;;;0.75;;
64667;SDS011;51077;42.716;23.344;2022-07-11T09:52:38;3.67;;;0.88;;
64667;SDS011;51077;42.716;23.344;2022-07-11T09:55:04;3.57;;;0.80;;
64667;SDS011;51077;42.716;23.344;2022-07-11T09:57:34;2.65;;;0.90;;
64667;SDS011;51077;42.716;23.344;2022-07-11T10:00:02;2.38;;;0.90;;
64667;SDS011;51077;42.716;23.344;2022-07-11T10:02:30;4.00;;;1.10;;
64667;SDS011;51077;42.716;23.344;2022-07-11T10:04:55;2.90;;;0.80;;
64667;SDS011;51077;42.716;23.344;2022-07-11T10:07:23;2.60;;;0.80;;
64667;SDS011;51077;42.716;23.344;2022-07-11T10:09:48;2.00;;;0.70;;
64667;SDS011;51077;42.716;23.344;2022-07-11T10:12:15;2.33;;;0.70;;
64667;SDS011;51077;42.716;23.344;2022-07-11T10:14:41;6.53;;;0.93;;
64667;SDS011;51077;42.716;23.344;2022-07-11T10:20:22;3.17;;;0.80;;
64667;SDS011;51077;42.716;23.344;2022-07-11T10:25:39;1.67;;;0.60;;
64667;SDS011;51077;42.716;23.344;2022-07-11T10:31:23;2.65;;;0.70;;
64667;SDS011;51077;42.716;23.344;2022-07-11T10:33:59;5.00;;;0.95;;
64667;SDS011;51077;42.716;23.344;2022-07-11T10:36:30;3.38;;;0.98;;
64667;SDS011;51077;42.716;23.344;2022-07-11T10:41:52;3.70;;;0.65;;
64667;SDS011;51077;42.716;23.344;2022-07-11T10:44:24;4.57;;;0.70;;
64667;SDS011;51077;42.716;23.344;2022-07-11T10:46:51;3.83;;;0.82;;
64667;SDS011;51077;42.716;23.344;2022-07-11T10:52:07;2.17;;;0.63;;
64667;SDS011;51077;42.716;23.344;2022-07-11T10:57:14;4.25;;;0.70;;
64667;SDS011;51077;42.716;23.344;2022-07-11T11:02:23;2.13;;;0.90;;
64667;SDS011;51077;42.716;23.344;2022-07-11T11:09:59;3.63;;;0.90;;
64667;SDS011;51077;42.716;23.344;2022-07-11T11:28:38;2.23;;;0.70;;
64667;SDS011;51077;42.716;23.344;2022-07-11T11:31:19;2.23;;;0.80;;
64667;SDS011;51077;42.716;23.344;2022-07-11T11:33:45;2.30;;;0.77;;
64667;SDS011;51077;42.716;23.344;2022-07-11T11:36:14;3.33;;;1.43;;
64667;SDS011;51077;42.716;23.344;2022-07-11T11:38:41;3.27;;;1.10;;
64667;SDS011;51077;42.716;23.344;2022-07-11T11:41:07;3.23;;;0.80;;
64667;SDS011;51077;42.716;23.344;2022-07-11T11:43:33;2.07;;;1.00;;
64667;SDS011;51077;42.716;23.344;2022-07-11T11:46:02;3.13;;;1.00;;
64667;SDS011;51077;42.716;23.344;2022-07-11T11:48:28;2.77;;;0.77;;
64667;SDS011;51077;42.716;23.344;2022-07-11T11:51:02;6.27;;;1.00;;
64667;SDS011;51077;42.716;23.344;2022-07-11T11:53:47;1.67;;;0.53;;
64667;SDS011;51077;42.716;23.344;2022-07-11T11:56:21;2.37;;;0.80;;
64667;SDS011;51077;42.716;23.344;2022-07-11T11:58:57;3.50;;;0.68;;
64667;SDS011;51077;42.716;23.344;2022-07-11T12:01:28;2.97;;;0.80;;
64667;SDS011;51077;42.716;23.344;2022-07-11T12:03:56;2.22;;;0.60;;
64667;SDS011;51077;42.716;23.344;2022-07-11T12:06:24;3.17;;;0.90;;
64667;SDS011;51077;42.716;23.344;2022-07-11T12:08:51;2.17;;;0.73;;
64667;SDS011;51077;42.716;23.344;2022-07-11T12:11:23;2.50;;;0.70;;
64667;SDS011;51077;42.716;23.344;2022-07-11T12:13:54;3.70;;;0.70;;
64667;SDS011;51077;42.716;23.344;2022-07-11T12:16:21;2.15;;;0.70;;
64667;SDS011;51077;42.716;23.344;2022-07-11T12:19:06;2.05;;;0.70;;
64667;SDS011;51077;42.716;23.344;2022-07-11T12:21:36;2.70;;;0.60;;
64667;SDS011;51077;42.716;23.344;2022-07-11T12:24:03;2.40;;;0.70;;
64667;SDS011;51077;42.716;23.344;2022-07-11T12:26:32;3.03;;;0.70;;
64667;SDS011;51077;42.716;23.344;2022-07-11T12:29:06;4.00;;;0.80;;
64667;SDS011;51077;42.716;23.344;2022-07-11T12:34:25;2.17;;;0.45;;
64667;SDS011;51077;42.716;23.344;2022-07-11T12:37:08;3.83;;;0.73;;
64667;SDS011;51077;42.716;23.344;2022-07-11T12:39:35;3.55;;;0.80;;
64667;SDS011;51077;42.716;23.344;2022-07-11T12:42:21;1.50;;;0.60;;
64667;SDS011;51077;42.716;23.344;2022-07-11T12:44:54;3.70;;;0.77;;
64667;SDS011;51077;42.716;23.344;2022-07-11T12:47:33;2.03;;;0.80;;
64667;SDS011;51077;42.716;23.344;2022-07-11T12:50:14;2.30;;;0.77;;
64667;SDS011;51077;42.716;23.344;2022-07-11T12:52:40;3.60;;;0.85;;
64667;SDS011;51077;42.716;23.344;2022-07-11T12:55:08;1.70;;;0.70;;
64667;SDS011;51077;42.716;23.344;2022-07-11T12:57:36;4.15;;;0.75;;
64667;SDS011;51077;42.716;23.344;2022-07-11T13:00:11;1.40;;;0.60;;
64667;SDS011;51077;42.716;23.344;2022-07-11T13:02:47;1.80;;;0.68;;
64667;SDS011;51077;42.716;23.344;2022-07-11T13:05:14;1.58;;;0.60;;
64667;SDS011;51077;42.716;23.344;2022-07-11T13:07:41;1.70;;;0.70;;
64667;SDS011;51077;42.716;23.344;2022-07-11T13:10:26;1.75;;;0.90;;
64667;SDS011;51077;42.716;23.344;2022-07-11T13:13:13;4.07;;;0.63;;
64667;SDS011;51077;42.716;23.344;2022-07-11T13:15:38;3.47;;;0.70;;
64667;SDS011;51077;42.716;23.344;2022-07-11T13:18:04;4.47;;;1.20;;
64667;SDS011;51077;42.716;23.344;2022-07-11T13:20:30;3.17;;;0.98;;
64667;SDS011;51077;42.716;23.344;2022-07-11T13:22:57;1.35;;;0.45;;
64667;SDS011;51077;42.716;23.344;2022-07-11T13:25:22;3.90;;;0.53;;
64667;SDS011;51077;42.716;23.344;2022-07-11T13:27:48;1.60;;;0.60;;
64667;SDS011;51077;42.716;23.344;2022-07-11T13:30:15;2.28;;;0.60;;
64667;SDS011;51077;42.716;23.344;2022-07-11T13:32:45;3.55;;;0.88;;
64667;SDS011;51077;42.716;23.344;2022-07-11T13:35:14;2.88;;;0.80;;
64667;SDS011;51077;42.716;23.344;2022-07-11T13:37:40;3.50;;;0.70;;
64667;SDS011;51077;42.716;23.344;2022-07-11T13:40:06;2.63;;;0.70;;
64667;SDS011;51077;42.716;23.344;2022-07-11T13:42:36;1.63;;;0.63;;
64667;SDS011;51077;42.716;23.344;2022-07-11T13:45:04;2.03;;;0.70;;
64667;SDS011;51077;42.716;23.344;2022-07-11T13:47:30;2.60;;;0.88;;
64667;SDS011;51077;42.716;23.344;2022-07-11T13:49:57;2.30;;;0.80;;
64667;SDS011;51077;42.716;23.344;2022-07-11T13:52:23;1.77;;;0.70;;
64667;SDS011;51077;42.716;23.344;2022-07-11T13:54:48;2.70;;;0.93;;
64667;SDS011;51077;42.716;23.344;2022-07-11T13:57:13;3.03;;;0.90;;
64667;SDS011;51077;42.716;23.344;2022-07-11T13:59:39;4.10;;;0.73;;
64667;SDS011;51077;42.716;23.344;2022-07-11T14:02:07;2.15;;;0.80;;
64667;SDS011;51077;42.716;23.344;2022-07-11T14:04:33;2.17;;;0.70;;
64667;SDS011;51077;42.716;23.344;2022-07-11T14:06:58;3.60;;;1.00;;
64667;SDS011;51077;42.716;23.344;2022-07-11T14:09:24;1.60;;;0.80;;
64667;SDS011;51077;42.716;23.344;2022-07-11T14:11:50;6.13;;;1.10;;
64667;SDS011;51077;42.716;23.344;2022-07-11T14:14:16;3.97;;;0.70;;
64667;SDS011;51077;42.716;23.344;2022-07-11T14:16:42;2.53;;;0.70;;
64667;SDS011;51077;42.716;23.344;2022-07-11T14:19:07;2.63;;;0.60;;
64667;SDS011;51077;42.716;23.344;2022-07-11T14:21:35;2.10;;;0.70;;
64667;SDS011;51077;42.716;23.344;2022-07-11T14:24:04;2.75;;;1.13;;
64667;SDS011;51077;42.716;23.344;2022-07-11T14:26:31;2.70;;;0.80;;
64667;SDS011;51077;42.716;23.344;2022-07-11T14:29:00;1.73;;;0.70;;
64667;SDS011;51077;42.716;23.344;2022-07-11T14:31:26;2.45;;;0.90;;
64667;SDS011;51077;42.716;23.344;2022-07-11T14:33:52;2.80;;;0.70;;
64667;SDS011;51077;42.716;23.344;2022-07-11T14:36:18;1.95;;;0.80;;
64667;SDS011;51077;42.716;23.344;2022-07-11T14:38:44;2.57;;;1.23;;
64667;SDS011;51077;42.716;23.344;2022-07-11T14:41:10;2.03;;;1.08;;
64667;SDS011;51077;42.716;23.344;2022-07-11T14:43:36;2.25;;;0.80;;
64667;SDS011;51077;42.716;23.344;2022-07-11T14:46:01;3.23;;;1.10;;
64667;SDS011;51077;42.716;23.344;2022-07-11T14:48:27;4.40;;;1.03;;
64667;SDS011;51077;42.716;23.344;2022-07-11T14:50:53;5.00;;;1.17;;
64667;SDS011;51077;42.716;23.344;2022-07-11T14:53:19;4.00;;;1.00;;
64667;SDS011;51077;42.716;23.344;2022-07-11T14:55:45;2.50;;;0.80;;
64667;SDS011;51077;42.716;23.344;2022-07-11T14:58:11;2.13;;;0.70;;
64667;SDS011;51077;42.716;23.344;2022-07-11T15:00:36;3.50;;;1.03;;
64667;SDS011;51077;42.716;23.344;2022-07-11T15:03:02;3.87;;;0.97;;
64667;SDS011;51077;42.716;23.344;2022-07-11T15:08:11;2.53;;;0.90;;
64667;SDS011;51077;42.716;23.344;2022-07-11T15:10:55;1.70;;;0.80;;
64667;SDS011;51077;42.716;23.344;2022-07-11T15:13:39;1.23;;;0.60;;
64667;SDS011;51077;42.716;23.344;2022-07-11T15:16:05;4.30;;;0.90;;
64667;SDS011;51077;42.716;23.344;2022-07-11T15:18:30;3.43;;;0.97;;
64667;SDS011;51077;42.716;23.344;2022-07-11T15:20:56;3.20;;;0.90;;
64667;SDS011;51077;42.716;23.344;2022-07-11T15:23:21;4.50;;;1.23;;
64667;SDS011;51077;42.716;23.344;2022-07-11T15:25:48;3.92;;;1.00;;
64667;SDS011;51077;42.716;23.344;2022-07-11T15:28:13;2.73;;;0.90;;